Time;durP1;ratioP1;P1;durP2;ratioP2;P2;SDS_P1;SDS_P2;PMS_P1;PMS_P2;Temp;Humidity;BMP_temperature;BMP_pressure;BME280_temperature;BME280_humidity;BME280_pressure;Samples;Min_cycle;Max_cycle;Signal;HPM_P1;HPM_P2
2021/09/28 00:01:03;;;;;;;1.20;0.88;;;;;;;13.73;100.00;101768.72;6275245;28;20049;-78
2021/09/28 00:04:04;;;;;;;3.30;1.20;;;;;;;13.73;100.00;101769.56;6275331;28;20492;-79
2021/09/28 00:07:07;;;;;;;3.85;1.33;;;;;;;13.63;100.00;101782.41;6275078;28;20049;-77
2021/09/28 00:10:09;;;;;;;2.25;1.33;;;;;;;13.61;100.00;101786.88;6275131;28;20049;-79
2021/09/28 00:13:10;;;;;;;1.50;0.95;;;;;;;13.56;100.00;101793.31;6275005;28;20049;-78
2021/09/28 00:16:12;;;;;;;2.03;1.55;;;;;;;13.53;100.00;101794.31;6275289;28;20049;-79
2021/09/28 00:19:13;;;;;;;2.72;1.10;;;;;;;13.47;100.00;101793.78;6274714;28;20565;-79
2021/09/28 00:22:16;;;;;;;1.45;1.20;;;;;;;13.45;100.00;101799.16;6274665;28;20515;-78
2021/09/28 00:25:17;;;;;;;1.60;1.13;;;;;;;13.42;100.00;101805.41;6274661;28;20049;-79
2021/09/28 00:28:18;;;;;;;1.10;1.00;;;;;;;13.40;100.00;101809.94;6274701;28;20139;-78
2021/09/28 00:31:20;;;;;;;1.20;0.90;;;;;;;13.33;100.00;101805.84;6274947;28;20049;-78
2021/09/28 00:34:21;;;;;;;1.92;0.70;;;;;;;13.28;100.00;101809.66;6274521;28;20056;-76
2021/09/28 00:37:24;;;;;;;1.15;0.65;;;;;;;13.28;100.00;101805.22;6274119;28;20051;-76
2021/09/28 00:40:25;;;;;;;1.17;0.77;;;;;;;13.27;100.00;101813.22;6274030;28;20049;-79
2021/09/28 00:43:26;;;;;;;0.95;0.77;;;;;;;13.33;100.00;101823.47;6274364;28;20059;-78
2021/09/28 00:46:28;;;;;;;1.58;0.85;;;;;;;13.26;100.00;101822.06;6274345;28;20389;-79
2021/09/28 00:49:29;;;;;;;1.77;0.95;;;;;;;13.28;100.00;101821.06;6274321;28;20504;-78
2021/09/28 00:52:32;;;;;;;0.68;0.57;;;;;;;13.23;100.00;101819.56;6274056;28;20231;-78
2021/09/28 00:55:34;;;;;;;0.88;0.70;;;;;;;13.22;100.00;101826.66;6274023;28;20045;-78
2021/09/28 00:58:36;;;;;;;1.17;1.00;;;;;;;13.19;100.00;101821.47;6274243;28;20439;-76
2021/09/28 01:01:37;;;;;;;1.42;0.70;;;;;;;13.16;100.00;101821.59;6273765;28;20064;-78
2021/09/28 01:04:39;;;;;;;1.30;0.90;;;;;;;12.99;100.00;101819.78;6274199;28;20052;-79
2021/09/28 01:07:42;;;;;;;1.20;1.10;;;;;;;12.93;100.00;101823.53;6273953;28;20049;-79
2021/09/28 01:10:43;;;;;;;1.10;1.00;;;;;;;12.93;100.00;101825.31;6273710;28;20056;-77
2021/09/28 01:13:44;;;;;;;1.58;1.00;;;;;;;12.95;100.00;101836.66;6272904;28;20504;-77
2021/09/28 01:16:46;;;;;;;1.67;1.00;;;;;;;12.98;100.00;101825.94;6273436;28;20053;-78
2021/09/28 01:19:48;;;;;;;3.78;1.10;;;;;;;12.98;100.00;101830.38;6318890;22;20044;-78
2021/09/28 01:22:51;;;;;;;1.50;0.90;;;;;;;12.98;100.00;101836.50;6323055;28;20067;-78
2021/09/28 01:25:52;;;;;;;1.70;1.10;;;;;;;12.95;100.00;101831.38;6310736;28;20041;-78
2021/09/28 01:28:55;;;;;;;0.80;0.80;;;;;;;12.94;100.00;101835.81;6322205;28;20044;-78
2021/09/28 01:31:57;;;;;;;1.30;1.20;;;;;;;12.91;100.00;101832.44;6321965;28;20052;-78
2021/09/28 01:34:58;;;;;;;1.75;1.00;;;;;;;12.87;100.00;101844.91;6322735;28;20384;-78
2021/09/28 01:38:01;;;;;;;2.05;1.17;;;;;;;12.84;100.00;101842.41;6323022;28;20051;-78
2021/09/28 01:41:02;;;;;;;1.65;1.10;;;;;;;12.83;100.00;101845.97;6322711;28;20052;-78
2021/09/28 01:44:08;;;;;;;1.38;1.27;;;;;;;12.80;100.00;101842.63;6314581;28;20045;-78
2021/09/28 01:47:09;;;;;;;2.22;0.75;;;;;;;12.77;100.00;101853.31;6322599;28;20047;-79
2021/09/28 01:50:11;;;;;;;1.00;0.90;;;;;;;12.75;100.00;101860.44;6322353;28;20048;-78
2021/09/28 01:53:14;;;;;;;2.42;1.05;;;;;;;12.65;100.00;101854.72;6322737;28;20052;-78
2021/09/28 01:56:18;;;;;;;1.95;1.02;;;;;;;12.66;100.00;101864.34;6322405;28;20071;-80
2021/09/28 01:59:19;;;;;;;1.85;1.42;;;;;;;12.63;100.00;101870.63;6322451;28;20044;-78
2021/09/28 02:02:20;;;;;;;3.38;1.23;;;;;;;12.64;100.00;101860.91;6322499;28;20052;-80
2021/09/28 02:05:22;;;;;;;1.77;1.13;;;;;;;12.62;100.00;101862.75;6317978;28;20055;-78
2021/09/28 02:08:24;;;;;;;3.45;1.20;;;;;;;12.59;100.00;101866.41;6321743;28;20055;-79
2021/09/28 02:11:26;;;;;;;2.03;1.08;;;;;;;12.54;100.00;101864.91;6322096;28;20051;-78
2021/09/28 02:14:28;;;;;;;1.23;0.60;;;;;;;12.41;100.00;101862.78;6321697;28;20052;-78
2021/09/28 02:17:29;;;;;;;1.13;0.93;;;;;;;12.39;100.00;101869.88;6321792;28;20052;-78
2021/09/28 02:20:31;;;;;;;1.63;0.77;;;;;;;12.41;100.00;101877.75;6321669;28;20502;-78
2021/09/28 02:23:34;;;;;;;1.80;1.25;;;;;;;12.40;100.00;101868.97;6321509;28;20055;-79
2021/09/28 02:26:35;;;;;;;0.85;0.65;;;;;;;12.38;100.00;101868.16;6318649;28;20049;-79
2021/09/28 02:29:36;;;;;;;0.68;0.68;;;;;;;12.36;100.00;101867.41;6322315;28;20529;-79
2021/09/28 02:32:38;;;;;;;1.73;0.88;;;;;;;12.35;100.00;101870.97;6321886;28;20059;-80
2021/09/28 02:35:39;;;;;;;1.50;1.05;;;;;;;12.28;100.00;101871.28;6321996;28;20056;-80
2021/09/28 02:38:42;;;;;;;2.15;1.15;;;;;;;12.20;100.00;101874.22;6322152;28;20047;-79
2021/09/28 02:41:43;;;;;;;2.25;1.00;;;;;;;12.16;100.00;101876.13;6322001;28;20113;-80
2021/09/28 02:44:45;;;;;;;2.25;0.90;;;;;;;12.19;100.00;101878.63;6322298;28;20052;-79
2021/09/28 02:47:46;;;;;;;1.30;0.95;;;;;;;12.21;100.00;101881.19;6321827;28;20123;-79
2021/09/28 02:50:48;;;;;;;1.10;1.00;;;;;;;12.14;100.00;101882.41;6322165;28;20059;-80
2021/09/28 02:53:50;;;;;;;1.85;0.95;;;;;;;12.05;100.00;101878.38;6321834;28;20041;-80
2021/09/28 02:56:52;;;;;;;3.63;1.02;;;;;;;12.00;100.00;101887.38;6326538;28;20044;-80
2021/09/28 02:59:53;;;;;;;1.38;0.70;;;;;;;11.99;100.00;101885.66;6327190;28;20441;-80
2021/09/28 03:02:54;;;;;;;5.72;0.85;;;;;;;11.99;100.00;101888.28;6326604;28;20418;-80
2021/09/28 03:05:56;;;;;;;2.00;1.00;;;;;;;12.00;100.00;101892.66;6326449;28;20048;-79
2021/09/28 03:08:58;;;;;;;1.33;0.98;;;;;;;11.99;100.00;101885.66;6313322;28;20422;-79
2021/09/28 03:12:00;;;;;;;1.23;0.90;;;;;;;11.98;100.00;101892.69;6311504;28;20048;-80
2021/09/28 03:15:01;;;;;;;1.17;0.93;;;;;;;11.98;100.00;101900.59;6312847;28;20047;-79
2021/09/28 03:18:03;;;;;;;1.42;1.00;;;;;;;11.99;100.00;101893.56;6311524;28;20044;-80
2021/09/28 03:21:04;;;;;;;1.10;1.00;;;;;;;11.96;100.00;101893.69;6313023;28;20123;-80
2021/09/28 03:24:07;;;;;;;3.35;1.10;;;;;;;11.97;100.00;101900.66;6310546;28;20066;-80
2021/09/28 03:27:08;;;;;;;1.10;1.00;;;;;;;11.92;100.00;101899.06;6313155;28;20056;-80
2021/09/28 03:30:11;;;;;;;1.63;1.02;;;;;;;11.89;100.00;101909.72;6309926;28;20055;-79
2021/09/28 03:33:12;;;;;;;4.40;1.17;;;;;;;11.83;100.00;101911.75;6310741;28;20720;-80
2021/09/28 03:36:14;;;;;;;1.40;1.15;;;;;;;11.75;100.00;101904.13;6312004;28;20047;-80
2021/09/28 03:39:17;;;;;;;1.40;1.20;;;;;;;11.65;100.00;101906.28;6316923;28;20048;-80
2021/09/28 03:42:18;;;;;;;1.15;0.88;;;;;;;11.57;100.00;101912.75;6325574;28;20059;-80
2021/09/28 03:45:19;;;;;;;1.98;1.38;;;;;;;11.54;100.00;101918.16;6325576;28;20127;-80
2021/09/28 03:48:21;;;;;;;2.30;1.02;;;;;;;11.49;100.00;101928.84;6325444;28;20044;-79
2021/09/28 03:51:22;;;;;;;2.85;1.20;;;;;;;11.47;100.00;101930.69;6325543;28;20051;-79
2021/09/28 03:54:25;;;;;;;2.42;1.58;;;;;;;11.41;100.00;101923.03;6325251;28;20495;-80
2021/09/28 03:57:27;;;;;;;1.33;1.10;;;;;;;11.39;100.00;101928.31;6325388;28;20643;-79
2021/09/28 04:00:28;;;;;;;1.90;1.55;;;;;;;11.34;100.00;101932.06;6325008;28;20067;-79
2021/09/28 04:03:30;;;;;;;1.95;1.63;;;;;;;11.30;100.00;101933.94;6324560;28;20418;-79
2021/09/28 04:06:31;;;;;;;1.73;1.40;;;;;;;11.29;100.00;101939.25;6324626;28;20055;-79
2021/09/28 04:09:34;;;;;;;2.13;1.52;;;;;;;11.27;100.00;101943.75;6324740;28;20044;-79
2021/09/28 04:12:35;;;;;;;1.77;1.50;;;;;;;11.23;100.00;101940.34;6324921;28;20051;-79
2021/09/28 04:15:40;;;;;;;1.92;1.40;;;;;;;11.21;100.00;101942.16;6324456;28;20526;-79
2021/09/28 04:18:41;;;;;;;2.20;1.10;;;;;;;11.22;100.00;101949.16;6324613;28;20070;-79
2021/09/28 04:21:43;;;;;;;4.07;2.25;;;;;;;11.15;100.00;101952.94;6324595;28;20048;-78
2021/09/28 04:24:46;;;;;;;3.05;1.60;;;;;;;11.13;100.00;101955.63;6324335;28;20134;-79
2021/09/28 04:27:47;;;;;;;2.40;1.85;;;;;;;11.11;100.00;101951.31;6325411;28;20621;-79
2021/09/28 04:30:48;;;;;;;3.63;2.03;;;;;;;11.11;100.00;101960.06;6324739;28;20052;-78
2021/09/28 04:33:50;;;;;;;5.65;2.08;;;;;;;11.10;100.00;101957.50;6324566;28;20419;-79
2021/09/28 04:36:51;;;;;;;3.17;1.92;;;;;;;11.11;100.00;101956.59;6324215;28;20051;-79
2021/09/28 04:39:54;;;;;;;2.05;1.60;;;;;;;11.15;100.00;101960.81;6324540;28;20051;-79
2021/09/28 04:42:55;;;;;;;2.83;1.75;;;;;;;11.16;100.00;101970.41;6324033;28;20055;-79
2021/09/28 04:45:57;;;;;;;2.97;2.00;;;;;;;11.16;100.00;101966.00;6323976;28;20048;-79
2021/09/28 04:48:58;;;;;;;5.07;1.73;;;;;;;11.14;100.00;101975.75;6323947;28;20048;-79
2021/09/28 04:52:00;;;;;;;3.30;1.90;;;;;;;11.18;100.00;101960.72;6324228;28;20052;-78
2021/09/28 04:55:04;;;;;;;2.65;1.80;;;;;;;11.13;100.00;101978.44;6323590;28;20048;-78
2021/09/28 04:58:05;;;;;;;5.60;2.00;;;;;;;11.09;100.00;101980.31;6323963;28;20070;-83
2021/09/28 05:01:06;;;;;;;3.00;1.88;;;;;;;11.05;100.00;101981.34;6318736;28;20044;-79
2021/09/28 05:04:08;;;;;;;4.75;2.20;;;;;;;11.01;100.00;101977.09;6323216;28;20051;-80
2021/09/28 05:07:09;;;;;;;4.18;2.35;;;;;;;10.99;100.00;101978.06;6323697;28;20415;-80
2021/09/28 05:10:12;;;;;;;2.95;1.88;;;;;;;10.98;100.00;101982.47;6323207;28;20040;-79
2021/09/28 05:13:13;;;;;;;4.43;2.03;;;;;;;10.93;100.00;101987.88;6324302;28;20052;-79
2021/09/28 05:16:14;;;;;;;2.78;1.90;;;;;;;10.90;100.00;101982.75;6323954;28;20055;-79
2021/09/28 05:19:16;;;;;;;3.38;2.45;;;;;;;10.88;100.00;101996.84;6323283;28;20491;-78
2021/09/28 05:22:17;;;;;;;4.90;2.55;;;;;;;10.85;100.00;101995.16;6324440;28;20059;-79
2021/09/28 05:25:20;;;;;;;5.03;1.85;;;;;;;10.84;100.00;101990.81;6323221;28;20052;-79
2021/09/28 05:28:21;;;;;;;4.10;2.38;;;;;;;10.84;100.00;102003.13;6323107;28;20052;-80
2021/09/28 05:31:22;;;;;;;4.35;2.55;;;;;;;10.88;100.00;102013.47;6323087;28;20047;-79
2021/09/28 05:34:24;;;;;;;8.88;2.05;;;;;;;10.92;100.00;102006.34;6316288;28;20055;-79
2021/09/28 05:37:25;;;;;;;4.45;2.55;;;;;;;10.90;100.00;102011.69;6323355;28;20648;-80
2021/09/28 05:40:28;;;;;;;7.70;2.88;;;;;;;10.88;100.00;102018.75;6321738;28;20040;-79
2021/09/28 05:43:29;;;;;;;4.57;2.42;;;;;;;10.82;100.00;102021.59;6318903;28;20052;-79
2021/09/28 05:46:31;;;;;;;6.90;2.78;;;;;;;10.83;100.00;102028.56;6318219;28;20043;-79
2021/09/28 05:49:33;;;;;;;3.40;2.58;;;;;;;10.86;100.00;102030.25;6322860;28;20044;-80
2021/09/28 05:52:34;;;;;;;5.95;2.95;;;;;;;10.83;100.00;102030.34;6322960;28;20150;-80
2021/09/28 05:55:38;;;;;;;3.60;2.17;;;;;;;10.86;100.00;102031.09;6323003;28;20044;-80
2021/09/28 05:58:39;;;;;;;5.35;2.55;;;;;;;10.85;100.00;102037.25;6322838;28;20044;-80
2021/09/28 06:01:40;;;;;;;4.10;2.53;;;;;;;10.87;100.00;102035.44;6323484;28;20097;-80
2021/09/28 06:04:42;;;;;;;6.07;2.90;;;;;;;10.86;100.00;102046.03;6323565;28;20044;-80
2021/09/28 06:07:44;;;;;;;6.65;3.55;;;;;;;10.84;100.00;102045.19;6323417;28;20419;-80
2021/09/28 06:10:46;;;;;;;7.25;3.58;;;;;;;10.89;100.00;102046.75;6323322;28;20044;-80
2021/09/28 06:13:48;;;;;;;7.72;3.65;;;;;;;10.89;100.00;102052.00;6313094;28;20040;-79
2021/09/28 06:16:49;;;;;;;6.43;3.45;;;;;;;10.93;100.00;102048.38;6314053;28;20055;-79
2021/09/28 06:19:51;;;;;;;4.93;3.00;;;;;;;10.98;100.00;102050.00;6313863;28;20044;-79
2021/09/28 06:22:52;;;;;;;6.68;3.60;;;;;;;11.02;100.00;102051.59;6322419;28;20075;-80
2021/09/28 06:25:55;;;;;;;8.07;3.63;;;;;;;11.07;100.00;102050.53;6321468;28;20044;-80
2021/09/28 06:28:56;;;;;;;5.25;3.58;;;;;;;11.12;100.00;102050.38;6321632;28;20055;-79
2021/09/28 06:31:58;;;;;;;7.95;3.80;;;;;;;11.15;100.00;102052.91;6321910;28;20071;-80
2021/09/28 06:34:59;;;;;;;7.95;4.00;;;;;;;11.20;100.00;102064.13;6322096;28;20048;-80
2021/09/28 06:38:03;;;;;;;12.75;4.32;;;;;;;11.21;100.00;102065.84;6314300;28;20049;-79
2021/09/28 06:41:06;;;;;;;10.27;4.97;;;;;;;11.26;100.00;102073.56;6322190;28;20505;-79
2021/09/28 06:44:08;;;;;;;9.52;4.93;;;;;;;11.27;100.00;102068.28;6322969;28;20048;-79
2021/09/28 06:47:10;;;;;;;7.50;4.57;;;;;;;11.31;100.00;102069.88;6323291;28;20574;-79
2021/09/28 06:50:11;;;;;;;7.90;4.65;;;;;;;11.36;100.00;102075.00;6323525;28;20418;-79
2021/09/28 06:53:13;;;;;;;11.30;4.65;;;;;;;11.39;100.00;102074.88;6319983;28;20044;-79
2021/09/28 06:56:18;;;;;;;9.70;4.95;;;;;;;11.41;100.00;102075.69;6299681;28;20052;-78
2021/09/28 06:59:19;;;;;;;10.75;5.05;;;;;;;11.41;100.00;102083.59;6298782;28;20044;-79
2021/09/28 07:02:20;;;;;;;9.82;5.15;;;;;;;11.41;100.00;102086.22;6310454;28;20040;-79
2021/09/28 07:05:22;;;;;;;9.77;5.18;;;;;;;11.42;100.00;102080.88;6315214;28;20044;-79
2021/09/28 07:08:23;;;;;;;11.43;5.28;;;;;;;11.40;100.00;102079.25;6326290;28;20055;-80
2021/09/28 07:11:26;;;;;;;13.25;6.20;;;;;;;11.45;100.00;102086.97;6311611;28;20063;-80
2021/09/28 07:14:27;;;;;;;10.00;5.85;;;;;;;11.45;100.00;102072.03;6306337;28;20040;-80
2021/09/28 07:17:28;;;;;;;14.70;6.03;;;;;;;11.47;100.00;102087.75;6303792;28;20426;-79
2021/09/28 07:20:30;;;;;;;12.18;5.43;;;;;;;11.50;100.00;102082.41;6325430;23;20053;-82
2021/09/28 07:23:31;;;;;;;12.20;6.30;;;;;;;11.53;100.00;102080.50;6300666;28;20044;-81
2021/09/28 07:26:34;;;;;;;12.55;5.68;;;;;;;11.59;100.00;102077.66;6295494;28;20044;-80
2021/09/28 07:29:35;;;;;;;14.02;6.03;;;;;;;11.63;100.00;102081.91;6292964;28;20051;-80
2021/09/28 07:32:37;;;;;;;14.18;6.28;;;;;;;11.69;100.00;102078.19;6302305;28;20451;-82
2021/09/28 07:35:42;;;;;;;14.50;7.10;;;;;;;11.74;100.00;102088.53;6302602;28;20053;-81
2021/09/28 07:38:43;;;;;;;24.73;7.00;;;;;;;11.85;100.00;102086.38;6302547;28;20048;-80
2021/09/28 07:41:46;;;;;;;19.58;7.90;;;;;;;11.86;100.00;102093.41;6307579;28;20051;-83
2021/09/28 07:44:48;;;;;;;19.92;7.70;;;;;;;11.89;100.00;102095.91;6309819;28;20048;-82
2021/09/28 07:47:50;;;;;;;15.93;7.45;;;;;;;11.98;100.00;102094.69;6310231;28;20048;-80
2021/09/28 07:50:51;;;;;;;16.00;8.00;;;;;;;12.04;100.00;102091.84;6309729;28;20100;-82
2021/09/28 07:53:53;;;;;;;22.08;8.55;;;;;;;12.13;100.00;102095.00;6309357;28;20044;-82
2021/09/28 07:56:57;;;;;;;23.15;8.73;;;;;;;12.19;100.00;102094.75;6307825;28;20048;-83
2021/09/28 07:59:59;;;;;;;23.35;8.95;;;;;;;12.29;100.00;102097.03;6307632;28;20037;-82
2021/09/28 08:03:01;;;;;;;19.67;8.27;;;;;;;12.36;100.00;102094.09;6300774;28;20052;-81
2021/09/28 08:06:02;;;;;;;21.10;9.45;;;;;;;12.41;100.00;102102.69;6301815;28;20044;-82
2021/09/28 08:09:03;;;;;;;20.27;9.25;;;;;;;12.48;100.00;102102.44;6300325;28;20052;-81
2021/09/28 08:12:07;;;;;;;18.25;7.80;;;;;;;12.51;100.00;102097.91;6304170;28;20045;-82
2021/09/28 08:15:10;;;;;;;23.45;9.57;;;;;;;12.49;100.00;102104.16;6304787;28;20037;-82
2021/09/28 08:18:11;;;;;;;18.73;8.43;;;;;;;12.51;100.00;102111.09;6303404;28;20064;-82
2021/09/28 08:21:13;;;;;;;17.88;7.88;;;;;;;12.54;100.00;102112.75;6303748;28;20132;-80
2021/09/28 08:24:14;;;;;;;20.60;9.25;;;;;;;12.57;100.00;102108.19;6307434;28;20045;-82
2021/09/28 08:30:35;;;;;;;15.60;7.82;;;;;;;12.70;100.00;102111.22;6305223;28;20049;-83
2021/09/28 08:33:38;;;;;;;16.60;8.07;;;;;;;12.80;100.00;102106.41;6314459;28;20491;-83
2021/09/28 08:36:40;;;;;;;14.50;7.38;;;;;;;12.89;100.00;102109.53;6311097;28;20045;-83
2021/09/28 08:39:42;;;;;;;20.13;9.20;;;;;;;12.97;100.00;102111.00;6298817;28;20052;-82
2021/09/28 08:42:45;;;;;;;19.50;9.18;;;;;;;12.99;100.00;102112.69;6299044;28;20071;-81
2021/09/28 08:45:46;;;;;;;21.83;9.70;;;;;;;12.92;100.00;102112.06;6300500;28;20048;-81
2021/09/28 08:48:49;;;;;;;20.58;8.70;;;;;;;12.87;100.00;102113.16;6299700;28;20081;-80
2021/09/28 08:51:52;;;;;;;21.00;10.73;;;;;;;12.86;100.00;102122.88;6299566;28;20060;-82
2021/09/28 08:54:53;;;;;;;17.52;8.65;;;;;;;12.88;100.00;102122.78;6301067;28;20048;-79
2021/09/28 08:58:15;;;;;;;20.23;8.82;;;;;;;12.84;100.00;102124.69;6307854;28;20060;-81
2021/09/28 09:01:17;;;;;;;17.50;8.73;;;;;;;12.88;100.00;102122.78;6308895;28;20060;-81
2021/09/28 09:04:20;;;;;;;17.95;9.80;;;;;;;12.94;100.00;102127.81;6299834;28;20052;-80
2021/09/28 09:07:23;;;;;;;22.40;8.38;;;;;;;12.98;100.00;102129.41;6298883;28;20519;-81
2021/09/28 09:10:28;;;;;;;19.88;9.40;;;;;;;13.03;100.00;102121.28;6300079;28;20072;-80
2021/09/28 09:13:36;;;;;;;22.17;9.77;;;;;;;13.08;100.00;102119.31;6298882;28;20198;-82
2021/09/28 09:16:41;;;;;;;19.73;8.35;;;;;;;13.14;100.00;102129.66;6299373;28;20048;-81
2021/09/28 09:19:42;;;;;;;22.00;9.05;;;;;;;13.27;100.00;102124.75;6297638;28;20182;-82
2021/09/28 09:22:43;;;;;;;19.70;9.13;;;;;;;13.37;100.00;102124.28;6298921;28;20052;-80
2021/09/28 09:25:46;;;;;;;20.70;8.70;;;;;;;13.51;100.00;102125.47;6298519;28;20049;-80
2021/09/28 09:28:50;;;;;;;15.98;7.95;;;;;;;13.56;100.00;102116.41;6298329;28;20041;-80
2021/09/28 09:31:54;;;;;;;19.50;9.77;;;;;;;13.49;100.00;102119.38;6288511;28;20041;-80
2021/09/28 09:34:55;;;;;;;20.92;9.13;;;;;;;13.42;100.00;102110.88;6284494;28;20525;-80
2021/09/28 09:38:05;;;;;;;21.48;9.00;;;;;;;13.41;100.00;102117.94;6298130;28;20040;-81
2021/09/28 09:41:07;;;;;;;17.92;8.90;;;;;;;13.37;100.00;102111.06;6297871;28;20072;-79
2021/09/28 09:44:11;;;;;;;18.90;9.05;;;;;;;13.49;100.00;102107.06;6298340;28;20044;-80
2021/09/28 09:47:25;;;;;;;15.48;8.38;;;;;;;13.62;100.00;102091.50;6298356;28;20045;-81
2021/09/28 09:50:27;;;;;;;19.40;9.45;;;;;;;13.77;100.00;102088.19;6297963;28;20052;-81
2021/09/28 09:53:29;;;;;;;21.10;10.23;;;;;;;13.69;100.00;102096.44;6297956;28;20558;-81
2021/09/28 09:56:44;;;;;;;21.23;10.23;;;;;;;13.63;100.00;102095.88;6298292;28;20443;-81
2021/09/28 09:59:47;;;;;;;18.70;8.63;;;;;;;13.58;100.00;102090.81;6297717;28;20048;-79
2021/09/28 10:02:49;;;;;;;17.67;8.70;;;;;;;13.55;100.00;102098.84;6298207;28;20049;-80
2021/09/28 10:05:50;;;;;;;12.68;7.90;;;;;;;13.53;100.00;102089.25;6297798;28;20492;-80
2021/09/28 10:08:52;;;;;;;17.98;7.38;;;;;;;13.59;100.00;102081.09;6297405;28;20425;-79
2021/09/28 10:11:54;;;;;;;18.52;8.70;;;;;;;13.70;100.00;102084.09;6295264;28;20052;-82
2021/09/28 10:15:08;;;;;;;16.30;8.65;;;;;;;13.80;100.00;102087.16;6297800;28;20056;-79
2021/09/28 10:18:09;;;;;;;16.48;8.43;;;;;;;13.91;100.00;102087.56;6297817;28;20052;-79
2021/09/28 10:21:38;;;;;;;16.27;8.23;;;;;;;14.01;100.00;102080.91;6297432;28;20048;-82
2021/09/28 10:24:41;;;;;;;19.25;8.68;;;;;;;14.06;100.00;102091.28;6297584;28;20416;-82
2021/09/28 10:27:42;;;;;;;17.02;8.13;;;;;;;14.22;100.00;102081.72;6298128;28;20138;-80
2021/09/28 10:30:46;;;;;;;17.40;8.20;;;;;;;14.46;100.00;102091.09;6297401;28;20514;-81
2021/09/28 10:33:57;;;;;;;15.30;7.40;;;;;;;14.40;100.00;102083.47;6297799;28;20044;-83
2021/09/28 10:36:59;;;;;;;20.33;9.13;;;;;;;14.43;100.00;102085.94;6298101;28;20525;-82
2021/09/28 10:40:00;;;;;;;16.48;7.32;;;;;;;14.49;100.00;102091.91;6297588;28;20048;-77
2021/09/28 10:43:03;;;;;;;13.27;7.38;;;;;;;14.57;100.00;102085.31;6297984;28;20055;-81
2021/09/28 10:46:06;;;;;;;13.60;6.40;;;;;;;14.70;100.00;102097.03;6297606;28;20443;-83
2021/09/28 10:49:29;;;;;;;22.33;7.45;;;;;;;14.77;100.00;102088.81;6297721;28;20041;-81
2021/09/28 10:52:37;;;;;;;21.23;8.48;;;;;;;14.95;100.00;102088.75;6298007;28;20504;-81
2021/09/28 10:55:41;;;;;;;15.43;6.97;;;;;;;15.17;100.00;102080.56;6297912;28;20086;-81
2021/09/28 10:58:57;;;;;;;14.23;8.27;;;;;;;15.39;100.00;102080.28;6297508;28;20056;-82
2021/09/28 11:02:09;;;;;;;12.77;7.30;;;;;;;15.48;100.00;102071.84;6297953;28;20127;-84
2021/09/28 11:05:41;;;;;;;13.93;6.80;;;;;;;15.44;100.00;102078.28;6297654;28;20052;-81
2021/09/28 11:08:43;;;;;;;9.50;5.78;;;;;;;15.42;100.00;102072.19;6244840;28;20057;-83
2021/09/28 11:11:49;;;;;;;14.10;6.40;;;;;;;15.58;100.00;102068.72;6297276;28;20045;-83
2021/09/28 11:14:58;;;;;;;10.18;5.72;;;;;;;15.61;100.00;102076.50;6296743;28;20409;-83
2021/09/28 11:18:08;;;;;;;7.75;5.28;;;;;;;15.63;100.00;102064.91;6302957;28;20063;-82
2021/09/28 11:21:11;;;;;;;11.05;6.20;;;;;;;15.59;100.00;102058.06;6302561;28;20131;-81
2021/09/28 11:24:18;;;;;;;11.75;5.40;;;;;;;15.76;100.00;102061.59;6302248;28;20055;-83
2021/09/28 11:27:20;;;;;;;10.27;7.03;;;;;;;15.80;100.00;102058.72;6302382;28;20138;-81
2021/09/28 11:30:21;;;;;;;13.45;6.38;;;;;;;15.83;100.00;102061.19;6301450;28;20048;-83
2021/09/28 11:33:25;;;;;;;12.65;5.18;;;;;;;15.83;100.00;102058.56;6301591;28;20056;-81
2021/09/28 11:36:33;;;;;;;8.02;4.68;;;;;;;16.19;100.00;102054.81;6302685;28;20051;-81
2021/09/28 11:39:45;;;;;;;8.20;5.50;;;;;;;16.46;100.00;102050.59;6302900;28;20052;-84
2021/09/28 11:42:46;;;;;;;11.50;6.03;;;;;;;16.48;100.00;102047.84;6302047;28;20049;-82
2021/09/28 11:45:57;;;;;;;11.10;4.97;;;;;;;16.41;99.63;102039.41;6301339;28;20045;-83
2021/09/28 11:49:05;;;;;;;12.10;5.45;;;;;;;16.65;98.67;102034.47;6294025;28;20452;-82
2021/09/28 11:52:08;;;;;;;8.75;4.85;;;;;;;16.81;96.58;102039.78;6302684;28;20480;-84
2021/09/28 11:55:10;;;;;;;5.75;4.22;;;;;;;16.96;92.45;102030.88;6301624;28;20048;-83
2021/09/28 11:58:11;;;;;;;11.85;4.82;;;;;;;17.05;91.31;102031.28;6301857;28;20053;-83
2021/09/28 12:01:14;;;;;;;7.43;5.22;;;;;;;16.86;90.52;102034.19;6301262;28;20048;-85
2021/09/28 12:04:31;;;;;;;12.80;6.28;;;;;;;16.68;91.76;102029.00;6303307;28;20052;-83
2021/09/28 12:11:02;;;;;;;7.95;4.55;;;;;;;16.76;93.22;102025.91;6303461;28;20040;-84
2021/09/28 12:14:03;;;;;;;8.43;3.97;;;;;;;17.02;93.47;102015.53;6290926;28;20048;-83
2021/09/28 12:17:13;;;;;;;5.60;3.50;;;;;;;17.33;93.21;102018.03;6304456;28;20486;-85
2021/09/28 12:20:17;;;;;;;;;;;;;;;17.47;87.33;102017.19;6306556;28;20054;-82
2021/09/28 12:23:18;;;;;;;4.97;3.45;;;;;;;17.59;85.23;102018.22;6306826;28;19932;-85
2021/09/28 12:26:24;;;;;;;8.98;4.32;;;;;;;17.28;90.02;102009.50;6304230;28;20045;-85
2021/09/28 12:29:26;;;;;;;6.78;3.03;;;;;;;17.09;83.97;102004.47;6308259;28;20051;-83
2021/09/28 12:32:31;;;;;;;6.28;3.28;;;;;;;17.30;86.88;102009.38;6306818;28;20048;-85
2021/09/28 12:35:36;;;;;;;5.28;3.03;;;;;;;17.50;84.30;102009.88;6306731;28;20047;-85
2021/09/28 12:38:38;;;;;;;5.57;3.25;;;;;;;17.50;88.84;102009.88;6303327;28;20041;-84
2021/09/28 12:42:02;;;;;;;9.55;4.72;;;;;;;17.37;85.73;102008.06;6300978;28;20048;-85
2021/09/28 12:45:07;;;;;;;3.30;2.50;;;;;;;17.17;87.21;102004.00;6296342;28;20072;-84
2021/09/28 12:48:08;;;;;;;5.18;3.05;;;;;;;17.00;85.31;102002.34;6300756;28;20044;-84
2021/09/28 12:51:14;;;;;;;5.60;3.20;;;;;;;17.05;86.66;102007.38;6300447;28;20056;-83
2021/09/28 12:54:16;;;;;;;5.57;3.65;;;;;;;17.61;84.43;102003.88;6300519;28;20044;-85
2021/09/28 12:57:17;;;;;;;5.45;2.70;;;;;;;17.53;83.58;102002.66;6301728;28;20053;-85
2021/09/28 13:00:19;;;;;;;5.00;3.42;;;;;;;17.38;83.95;101996.50;6301586;28;20049;-81
2021/09/28 13:03:23;;;;;;;2.80;2.15;;;;;;;17.36;83.46;101988.63;6300108;28;20045;-84
2021/09/28 13:06:25;;;;;;;3.25;2.38;;;;;;;17.25;83.13;101988.41;6299407;28;20053;-85
2021/09/28 13:09:27;;;;;;;3.50;2.10;;;;;;;17.33;82.86;101986.16;6300818;28;20045;-84
2021/09/28 13:12:28;;;;;;;8.95;2.45;;;;;;;17.47;84.93;101982.63;6299263;28;20044;-84
2021/09/28 13:15:29;;;;;;;2.13;1.67;;;;;;;17.52;79.30;101992.97;6299798;28;20048;-83
2021/09/28 13:18:31;;;;;;;5.20;2.35;;;;;;;17.54;79.41;101997.25;6300042;28;20051;-83
2021/09/28 13:21:34;;;;;;;2.65;1.92;;;;;;;17.73;76.55;101986.31;6299799;22;20409;-84
2021/09/28 13:24:35;;;;;;;3.25;1.98;;;;;;;17.92;79.06;101989.53;6273349;28;20053;-85
2021/09/28 13:27:37;;;;;;;1.60;1.45;;;;;;;18.24;78.41;101992.75;6273578;28;20048;-82
2021/09/28 13:30:39;;;;;;;2.38;1.50;;;;;;;18.17;76.50;101991.47;6274060;28;20044;-81
2021/09/28 13:33:41;;;;;;;1.77;1.30;;;;;;;18.25;75.10;101988.28;6274772;28;20049;-82
2021/09/28 13:36:43;;;;;;;6.45;1.50;;;;;;;17.93;75.03;101982.41;6275421;28;20049;-81
2021/09/28 13:39:45;;;;;;;6.38;1.55;;;;;;;17.85;77.63;101980.25;6273252;28;20045;-78
2021/09/28 13:42:46;;;;;;;2.50;1.42;;;;;;;17.79;76.89;101979.78;6273936;28;20052;-78
2021/09/28 13:45:47;;;;;;;1.33;1.20;;;;;;;17.97;76.93;101975.94;6273669;28;20053;-79
2021/09/28 13:48:49;;;;;;;4.57;1.70;;;;;;;17.94;74.71;101966.34;6274162;28;20060;-79
2021/09/28 13:51:52;;;;;;;1.00;0.90;;;;;;;17.96;77.02;101969.75;6273504;28;20051;-78
2021/09/28 13:54:53;;;;;;;4.15;1.30;;;;;;;18.10;77.51;101968.84;6273264;28;20057;-79
2021/09/28 13:57:55;;;;;;;1.70;1.23;;;;;;;18.12;78.75;101968.75;6273856;28;20052;-78
2021/09/28 14:00:56;;;;;;;3.92;1.05;;;;;;;18.17;80.20;101964.00;6272793;28;20607;-79
2021/09/28 14:03:58;;;;;;;2.05;1.10;;;;;;;18.12;80.67;101968.75;6272663;28;20056;-78
2021/09/28 14:07:01;;;;;;;2.00;1.23;;;;;;;18.03;80.68;101956.91;6272562;28;20056;-79